Ermioni — SVBA8 — position and weather

sailwx.info

Track history (hours):
 
Tides and Currents Weather Stations Pressure Air Temp Water Temp Dewpoint Dewpoint Depression Visibility Wind Speed Wind Dir Waves Ship Positions

Ermioni

Last reported at 2017-Sep-24 20:12 UTC. Time now 2017-Sep-26 21:59 UTC.
Position N 37°30' E 023°38'.

Length 80 m; draft 4.5 m.

Type: Tanker. MMSI: 241025000.

Date/timePositionNaut miles runAvg speedWind from/ knotsBaromVisibWave heightAir tempDewpointWater temp
2017-Sep-24 20:12N 37°30' E 023°38'2 8.8
2017-Sep-24 20:00N 37°31' E 023°37'4 8.7
2017-Sep-24 19:30N 37°36' E 023°36'4 7.1
2017-Sep-24 19:00N 37°38' E 023°34'4 8.4
2017-Sep-24 18:30N 37°39' E 023°28'4 8.2
2017-Sep-24 18:00N 37°39' E 023°23'4 8.1
2017-Sep-24 17:30N 37°40' E 023°18'4 7.9
2017-Sep-24 16:59N 37°42' E 023°14'4 7.9
2017-Sep-24 16:30N 37°45' E 023°13'4 8.1
2017-Sep-24 16:00N 37°49' E 023°12'4 8.1
2017-Sep-24 15:30N 37°53' E 023°09'4 7.2
2017-Sep-24 15:00N 37°55' E 023°05'0 0.1
2017-Sep-24 14:30N 37°55' E 023°05'0 0.0
2017-Sep-24 14:00N 37°55' E 023°05'0 0.0
2017-Sep-24 13:30N 37°55' E 023°05'0 0.0
2017-Sep-24 13:00N 37°55' E 023°05'0 0.0
2017-Sep-24 12:30N 37°55' E 023°05'0 0.0
2017-Sep-24 12:00N 37°55' E 023°05'0 0.0
2017-Sep-24 11:30N 37°55' E 023°05'0 0.0
2017-Sep-24 11:00N 37°55' E 023°05'0 0.0
2017-Sep-24 10:30N 37°55' E 023°05'0 0.0
2017-Sep-24 10:00N 37°55' E 023°05'0 0.0
2017-Sep-24 09:30N 37°55' E 023°05'0 0.0
2017-Sep-24 09:00N 37°55' E 023°05'0 0.0
2017-Sep-24 08:30N 37°55' E 023°05'0 0.0
2017-Sep-24 08:00N 37°55' E 023°05'0 0.0
2017-Sep-24 07:30N 37°55' E 023°05'0 0.0
2017-Sep-24 06:29N 37°55' E 023°05'0 0.0
2017-Sep-24 06:00N 37°55' E 023°05'0 0.0
2017-Sep-24 05:30N 37°55' E 023°05'0 0.0
2017-Sep-23 20:40N 37°55' E 023°05'0 0.0
2017-Sep-23 20:30N 37°55' E 023°05'0 0.0
2017-Sep-23 20:00N 37°55' E 023°05'194 4.6
2017-Sep-22 02:00N 40°57' E 024°33'0 0.0
2017-Sep-22 01:30N 40°57' E 024°33'0 0.0
2017-Sep-22 01:00N 40°57' E 024°33'0 0.0
2017-Sep-22 00:30N 40°57' E 024°33'0 0.0
2017-Sep-22 00:00N 40°57' E 024°33'0 0.0
2017-Sep-21 23:30N 40°57' E 024°33'0 0.0
2017-Sep-21 23:00N 40°57' E 024°33'0 0.0
2017-Sep-21 22:30N 40°57' E 024°33'0 0.0
2017-Sep-21 22:00N 40°57' E 024°33'0 0.0
2017-Sep-21 21:30N 40°57' E 024°33'0 0.0
2017-Sep-21 21:00N 40°57' E 024°33'0 0.0
2017-Sep-21 20:30N 40°57' E 024°33'0 0.0
2017-Sep-21 20:00N 40°57' E 024°33'0 0.0
2017-Sep-21 19:30N 40°57' E 024°33'0 0.0
2017-Sep-21 19:00N 40°57' E 024°33'0 0.0
2017-Sep-21 18:30N 40°57' E 024°33'0 0.0
2017-Sep-21 18:00N 40°57' E 024°33'0 0.0
2017-Sep-21 17:30N 40°57' E 024°33'0 0.0
2017-Sep-21 17:00N 40°57' E 024°33'0 0.0
2017-Sep-21 16:30N 40°57' E 024°33'0 0.0
2017-Sep-21 16:00N 40°57' E 024°33'0 0.0
2017-Sep-21 15:30N 40°57' E 024°33'0 0.0
2017-Sep-21 15:00N 40°57' E 024°33'0 0.0
2017-Sep-21 14:30N 40°57' E 024°33'0 0.0
2017-Sep-21 14:00N 40°57' E 024°33'0 0.0
2017-Sep-21 13:30N 40°57' E 024°33'0 0.0
2017-Sep-21 13:00N 40°57' E 024°33'0 0.0
2017-Sep-21 12:30N 40°57' E 024°33'0 0.0
2017-Sep-21 12:00N 40°57' E 024°33'0 0.0
2017-Sep-21 11:30N 40°57' E 024°33'0 0.0
2017-Sep-21 11:00N 40°57' E 024°33'0 0.0
2017-Sep-21 10:30N 40°57' E 024°33'0 0.0
2017-Sep-21 10:00N 40°57' E 024°33'0 0.0
2017-Sep-21 09:30N 40°57' E 024°33'0 0.0
2017-Sep-21 09:00N 40°57' E 024°33'0 0.0
2017-Sep-21 08:30N 40°57' E 024°33'0 0.0
2017-Sep-21 08:00N 40°57' E 024°33'0 0.0
2017-Sep-21 07:30N 40°57' E 024°33'0 0.0
2017-Sep-21 07:00N 40°57' E 024°33'0 0.0
2017-Sep-21 06:30N 40°57' E 024°33'0 0.0
2017-Sep-21 06:00N 40°57' E 024°33'0 0.1
2017-Sep-21 05:30N 40°57' E 024°33'0 0.8
2017-Sep-21 05:00N 40°57' E 024°32'3 5.9
2017-Sep-21 04:30N 40°56' E 024°29'1 1.3
2017-Sep-21 04:00N 40°55' E 024°29'0 0.0
2017-Sep-21 03:30N 40°55' E 024°29'0 0.0
2017-Sep-21 03:00N 40°55' E 024°29'0 0.0
2017-Sep-21 02:30N 40°55' E 024°29'0 0.0
2017-Sep-21 02:00N 40°55' E 024°29'0 0.0
2017-Sep-21 01:30N 40°55' E 024°29'0 0.0
2017-Sep-21 01:00N 40°55' E 024°29'0 0.0
2017-Sep-21 00:30N 40°55' E 024°29'0 0.0
2017-Sep-21 00:00N 40°55' E 024°29'0 0.1
2017-Sep-20 23:05N 40°55' E 024°28'0 0.2
2017-Sep-20 23:00N 40°55' E 024°28'3 6.0
2017-Sep-20 22:30N 40°52' E 024°28'4 8.8
2017-Sep-20 22:00N 40°48' E 024°26'5 9.0
2017-Sep-20 21:30N 40°44' E 024°25'4 8.8
2017-Sep-20 21:00N 40°39' E 024°24'4 8.7
2017-Sep-20 20:30N 40°35' E 024°25'4 8.7
2017-Sep-20 20:00N 40°30' E 024°26'4 9.0
2017-Sep-20 19:30N 40°26' E 024°27'5 9.4
2017-Sep-20 19:00N 40°21' E 024°28'5 9.1
2017-Sep-20 18:30N 40°17' E 024°29'5 8.8
2017-Sep-20 17:58N 40°12' E 024°30'4 8.6
2017-Sep-20 17:29N 40°08' E 024°31'4 9.2
2017-Sep-20 17:00N 40°04' E 024°32'5 9.1
2017-Sep-20 16:30N 39°59' E 024°32'24 8.3
2017-Sep-20 13:35N 39°35' E 024°38'1 8.2
2017-Sep-20 13:30N 39°35' E 024°38'4 8.3
2017-Sep-20 13:00N 39°31' E 024°39'6 8.5
2017-Sep-20 12:20N 39°25' E 024°40'3 8.3
2017-Sep-20 11:57N 39°22' E 024°41'7 8.0
2017-Sep-20 11:06N 39°15' E 024°42'6 8.0
2017-Sep-20 10:20N 39°09' E 024°44'3 8.2
2017-Sep-20 09:58N 39°06' E 024°44'4 8.3
2017-Sep-20 09:29N 39°02' E 024°45'91 8.3
2017-Sep-19 22:29N 37°36' E 024°06'6 8.9
2017-Sep-19 21:50N 37°37' E 023°59'3 8.8
2017-Sep-19 21:30N 37°37' E 023°56'4 8.5
2017-Sep-19 21:00N 37°38' E 023°50'4 8.8
2017-Sep-19 20:30N 37°39' E 023°45'4 8.0
2017-Sep-19 20:00N 37°41' E 023°41'4 8.7
2017-Sep-19 19:30N 37°45' E 023°38'4 8.8
2017-Sep-19 19:00N 37°49' E 023°35'4 8.2
2017-Sep-19 18:30N 37°50' E 023°30'4 8.4
2017-Sep-19 18:00N 37°51' E 023°25'4 8.9
2017-Sep-19 17:31N 37°52' E 023°20'5 9.4
2017-Sep-19 17:00N 37°53' E 023°14'5 9.2
2017-Sep-19 16:29N 37°54' E 023°08'2 0.1
2017-Sep-18 19:24N 37°55' E 023°06'0 0.0
2017-Sep-17 15:06N 37°55' E 023°06'0 1.5
2017-Sep-17 15:00N 37°55' E 023°06'3 6.6
2017-Sep-17 14:30N 37°52' E 023°09'4 8.4
2017-Sep-17 14:00N 37°49' E 023°12'4 8.4
2017-Sep-17 13:30N 37°45' E 023°15'4 8.4
2017-Sep-17 13:00N 37°42' E 023°17'4 7.5
2017-Sep-17 12:30N 37°39' E 023°21'4 8.7
2017-Sep-17 12:00N 37°39' E 023°27'4 8.5
2017-Sep-17 11:30N 37°38' E 023°32'4 8.7
2017-Sep-17 11:00N 37°37' E 023°37'4 8.4
2017-Sep-17 10:30N 37°35' E 023°42'4 8.4
2017-Sep-17 10:00N 37°32' E 023°46'4 8.2
2017-Sep-17 09:30N 37°29' E 023°49'4 7.9
2017-Sep-17 09:00N 37°27' E 023°53'4 7.6
2017-Sep-17 08:30N 37°24' E 023°57'4 7.3
2017-Sep-17 07:55N 37°21' E 024°01'3 7.3
2017-Sep-17 07:30N 37°19' E 024°04'  
Track history (hours):
 
Tides and Currents Weather Stations Pressure Air Temp Water Temp Dewpoint Dewpoint Depression Visibility Wind Speed Wind Dir Waves Ship Positions

Ermioni

Last reported at 2017-Sep-24 20:12 UTC. Time now 2017-Sep-26 21:59 UTC.
Position N 37°30' E 023°38'.

Length 80 m; draft 4.5 m.

Type: Tanker. MMSI: 241025000.

Date/timePositionNaut miles runAvg speedWind from/ knotsBaromVisibWave heightAir tempDewpointWater temp
2017-Sep-24 20:12N 37°30' E 023°38'2 8.8
2017-Sep-24 20:00N 37°31' E 023°37'4 8.7
2017-Sep-24 19:30N 37°36' E 023°36'4 7.1
2017-Sep-24 19:00N 37°38' E 023°34'4 8.4
2017-Sep-24 18:30N 37°39' E 023°28'4 8.2
2017-Sep-24 18:00N 37°39' E 023°23'4 8.1
2017-Sep-24 17:30N 37°40' E 023°18'4 7.9
2017-Sep-24 16:59N 37°42' E 023°14'4 7.9
2017-Sep-24 16:30N 37°45' E 023°13'4 8.1
2017-Sep-24 16:00N 37°49' E 023°12'4 8.1
2017-Sep-24 15:30N 37°53' E 023°09'4 7.2
2017-Sep-24 15:00N 37°55' E 023°05'0 0.1
2017-Sep-24 14:30N 37°55' E 023°05'0 0.0
2017-Sep-24 14:00N 37°55' E 023°05'0 0.0
2017-Sep-24 13:30N 37°55' E 023°05'0 0.0
2017-Sep-24 13:00N 37°55' E 023°05'0 0.0
2017-Sep-24 12:30N 37°55' E 023°05'0 0.0
2017-Sep-24 12:00N 37°55' E 023°05'0 0.0
2017-Sep-24 11:30N 37°55' E 023°05'0 0.0
2017-Sep-24 11:00N 37°55' E 023°05'0 0.0
2017-Sep-24 10:30N 37°55' E 023°05'0 0.0
2017-Sep-24 10:00N 37°55' E 023°05'0 0.0
2017-Sep-24 09:30N 37°55' E 023°05'0 0.0
2017-Sep-24 09:00N 37°55' E 023°05'0 0.0
2017-Sep-24 08:30N 37°55' E 023°05'0 0.0
2017-Sep-24 08:00N 37°55' E 023°05'0 0.0
2017-Sep-24 07:30N 37°55' E 023°05'0 0.0
2017-Sep-24 06:29N 37°55' E 023°05'0 0.0
2017-Sep-24 06:00N 37°55' E 023°05'0 0.0
2017-Sep-24 05:30N 37°55' E 023°05'0 0.0
2017-Sep-23 20:40N 37°55' E 023°05'0 0.0
2017-Sep-23 20:30N 37°55' E 023°05'0 0.0
2017-Sep-23 20:00N 37°55' E 023°05'194 4.6
2017-Sep-22 02:00N 40°57' E 024°33'0 0.0
2017-Sep-22 01:30N 40°57' E 024°33'0 0.0
2017-Sep-22 01:00N 40°57' E 024°33'0 0.0
2017-Sep-22 00:30N 40°57' E 024°33'0 0.0
2017-Sep-22 00:00N 40°57' E 024°33'0 0.0
2017-Sep-21 23:30N 40°57' E 024°33'0 0.0
2017-Sep-21 23:00N 40°57' E 024°33'0 0.0
2017-Sep-21 22:30N 40°57' E 024°33'0 0.0
2017-Sep-21 22:00N 40°57' E 024°33'0 0.0
2017-Sep-21 21:30N 40°57' E 024°33'0 0.0
2017-Sep-21 21:00N 40°57' E 024°33'0 0.0
2017-Sep-21 20:30N 40°57' E 024°33'0 0.0
2017-Sep-21 20:00N 40°57' E 024°33'0 0.0
2017-Sep-21 19:30N 40°57' E 024°33'0 0.0
2017-Sep-21 19:00N 40°57' E 024°33'0 0.0
2017-Sep-21 18:30N 40°57' E 024°33'0 0.0
2017-Sep-21 18:00N 40°57' E 024°33'0 0.0
2017-Sep-21 17:30N 40°57' E 024°33'0 0.0
2017-Sep-21 17:00N 40°57' E 024°33'0 0.0
2017-Sep-21 16:30N 40°57' E 024°33'0 0.0
2017-Sep-21 16:00N 40°57' E 024°33'0 0.0
2017-Sep-21 15:30N 40°57' E 024°33'0 0.0
2017-Sep-21 15:00N 40°57' E 024°33'0 0.0
2017-Sep-21 14:30N 40°57' E 024°33'0 0.0
2017-Sep-21 14:00N 40°57' E 024°33'0 0.0
2017-Sep-21 13:30N 40°57' E 024°33'0 0.0
2017-Sep-21 13:00N 40°57' E 024°33'0 0.0
2017-Sep-21 12:30N 40°57' E 024°33'0 0.0
2017-Sep-21 12:00N 40°57' E 024°33'0 0.0
2017-Sep-21 11:30N 40°57' E 024°33'0 0.0
2017-Sep-21 11:00N 40°57' E 024°33'0 0.0
2017-Sep-21 10:30N 40°57' E 024°33'0 0.0
2017-Sep-21 10:00N 40°57' E 024°33'0 0.0
2017-Sep-21 09:30N 40°57' E 024°33'0 0.0
2017-Sep-21 09:00N 40°57' E 024°33'0 0.0
2017-Sep-21 08:30N 40°57' E 024°33'0 0.0
2017-Sep-21 08:00N 40°57' E 024°33'0 0.0
2017-Sep-21 07:30N 40°57' E 024°33'0 0.0
2017-Sep-21 07:00N 40°57' E 024°33'0 0.0
2017-Sep-21 06:30N 40°57' E 024°33'0 0.0
2017-Sep-21 06:00N 40°57' E 024°33'0 0.1
2017-Sep-21 05:30N 40°57' E 024°33'0 0.8
2017-Sep-21 05:00N 40°57' E 024°32'3 5.9
2017-Sep-21 04:30N 40°56' E 024°29'1 1.3
2017-Sep-21 04:00N 40°55' E 024°29'0 0.0
2017-Sep-21 03:30N 40°55' E 024°29'0 0.0
2017-Sep-21 03:00N 40°55' E 024°29'0 0.0
2017-Sep-21 02:30N 40°55' E 024°29'0 0.0
2017-Sep-21 02:00N 40°55' E 024°29'0 0.0
2017-Sep-21 01:30N 40°55' E 024°29'0 0.0
2017-Sep-21 01:00N 40°55' E 024°29'0 0.0
2017-Sep-21 00:30N 40°55' E 024°29'0 0.0
2017-Sep-21 00:00N 40°55' E 024°29'0 0.1
2017-Sep-20 23:05N 40°55' E 024°28'0 0.2
2017-Sep-20 23:00N 40°55' E 024°28'3 6.0
2017-Sep-20 22:30N 40°52' E 024°28'4 8.8
2017-Sep-20 22:00N 40°48' E 024°26'5 9.0
2017-Sep-20 21:30N 40°44' E 024°25'4 8.8
2017-Sep-20 21:00N 40°39' E 024°24'4 8.7
2017-Sep-20 20:30N 40°35' E 024°25'4 8.7
2017-Sep-20 20:00N 40°30' E 024°26'4 9.0
2017-Sep-20 19:30N 40°26' E 024°27'5 9.4
2017-Sep-20 19:00N 40°21' E 024°28'5 9.1
2017-Sep-20 18:30N 40°17' E 024°29'5 8.8
2017-Sep-20 17:58N 40°12' E 024°30'4 8.6
2017-Sep-20 17:29N 40°08' E 024°31'4 9.2
2017-Sep-20 17:00N 40°04' E 024°32'5 9.1
2017-Sep-20 16:30N 39°59' E 024°32'24 8.3
2017-Sep-20 13:35N 39°35' E 024°38'1 8.2
2017-Sep-20 13:30N 39°35' E 024°38'4 8.3
2017-Sep-20 13:00N 39°31' E 024°39'6 8.5
2017-Sep-20 12:20N 39°25' E 024°40'3 8.3
2017-Sep-20 11:57N 39°22' E 024°41'7 8.0
2017-Sep-20 11:06N 39°15' E 024°42'6 8.0
2017-Sep-20 10:20N 39°09' E 024°44'3 8.2
2017-Sep-20 09:58N 39°06' E 024°44'4 8.3
2017-Sep-20 09:29N 39°02' E 024°45'91 8.3
2017-Sep-19 22:29N 37°36' E 024°06'6 8.9
2017-Sep-19 21:50N 37°37' E 023°59'3 8.8
2017-Sep-19 21:30N 37°37' E 023°56'4 8.5
2017-Sep-19 21:00N 37°38' E 023°50'4 8.8
2017-Sep-19 20:30N 37°39' E 023°45'4 8.0
2017-Sep-19 20:00N 37°41' E 023°41'4 8.7
2017-Sep-19 19:30N 37°45' E 023°38'4 8.8
2017-Sep-19 19:00N 37°49' E 023°35'4 8.2
2017-Sep-19 18:30N 37°50' E 023°30'4 8.4
2017-Sep-19 18:00N 37°51' E 023°25'4 8.9
2017-Sep-19 17:31N 37°52' E 023°20'5 9.4
2017-Sep-19 17:00N 37°53' E 023°14'5 9.2
2017-Sep-19 16:29N 37°54' E 023°08'2 0.1
2017-Sep-18 19:24N 37°55' E 023°06'0 0.0
2017-Sep-17 15:06N 37°55' E 023°06'0 1.5
2017-Sep-17 15:00N 37°55' E 023°06'3 6.6
2017-Sep-17 14:30N 37°52' E 023°09'4 8.4
2017-Sep-17 14:00N 37°49' E 023°12'4 8.4
2017-Sep-17 13:30N 37°45' E 023°15'4 8.4
2017-Sep-17 13:00N 37°42' E 023°17'4 7.5
2017-Sep-17 12:30N 37°39' E 023°21'4 8.7
2017-Sep-17 12:00N 37°39' E 023°27'4 8.5
2017-Sep-17 11:30N 37°38' E 023°32'4 8.7
2017-Sep-17 11:00N 37°37' E 023°37'4 8.4
2017-Sep-17 10:30N 37°35' E 023°42'4 8.4
2017-Sep-17 10:00N 37°32' E 023°46'4 8.2
2017-Sep-17 09:30N 37°29' E 023°49'4 7.9
2017-Sep-17 09:00N 37°27' E 023°53'4 7.6
2017-Sep-17 08:30N 37°24' E 023°57'4 7.3
2017-Sep-17 07:55N 37°21' E 024°01'3 7.3
2017-Sep-17 07:30N 37°19' E 024°04'  

Dump ship's entire track history